Le Roy, IL (61752)

9:24 PM CST on February 07, 2016 (GMT -0600)
LeRoy Fertilizer | | Change Station
CLOSE
Current Station
Personal Weather Station
Location: Le Roy, IL
Elevation: 784 ft
Nearby Weather Stations

Elev 784 ft 40.35 °N, 88.77 °W | Updated 14 minutes ago

Mostly Cloudy
Mostly Cloudy
33.0 °F
Feels Like 33 °F
N
1.0
Wind Variable Wind from WSW
Gusts 1.0 mph

Today
High -- | Low -- °F
--% Chance of Precip.
Yesterday
High -- | Low -- °F
Precip. -- in
Pressure 29.84 in
Visibility 10.0 miles
Clouds Scattered Clouds 6000 ft
Windchill 33 °F
Dew Point 31 °F
Humidity 91%
Rainfall 0.00 in
Snow Depth Not available.
6:58 AM 5:20 PM
Waning Crescent, 0% visible
METAR KBMI 080256Z 29010KT 10SM SCT060 02/M02 A2981 RMK AO2 58008 T00221016 SLP105
Pressure 29.84 in
Visibility 10.0 miles
Clouds Scattered Clouds 6000 ft
Windchill 33 °F
Dew Point 31 °F
Humidity 91%
Rainfall 0.00 in
Snow Depth Not available.
6:58 AM 5:20 PM
Waning Crescent, 0% visible
METAR KBMI 080256Z 29010KT 10SM SCT060 02/M02 A2981 RMK AO2 58008 T00221016 SLP105

10-Day Weather Forecast

Almanac

Astronomy

Feb. 07, 2016 Rise Set
Actual Time
Civil Twilight
Nautical Twilight
Astronomical Twilight
Moon
Length of Visible Light
Length of Day
Tomorrow will be .
, % of the Moon is Illuminated

Today's Extremes

State Highs State Lows

Community

WunderPhotos

Upload Photos

1,891,377 photos uploaded!

WunderBlog® & News

Nearby

Air Quality

  Air Quality AQ Index Pollutant
Not available.

Snow Depth

Station Depth Elevation

Earthquake Activity

City Distance Mag. Time & Date
Minimum magnitude displayed is 2.5.

Coastal Water Temperatures

Place Temperature

Stations

Nearby Weather Stations

Station Location Temp. Windchill Dew Point Humidity Wind Precip. Elev Updated Type
                   

Watches & Warnings

There are currently no watches in effect.